createdAt,value
2023-04-10T00:02:21.532Z,27.70
2023-04-10T00:03:54.387Z,26.20
2023-04-10T00:05:10.276Z,27.00
2023-04-10T00:06:43.084Z,26.90
2023-04-10T00:08:08.674Z,29.00
2023-04-10T00:09:35.152Z,28.00
2023-04-10T00:11:06.517Z,25.30
2023-04-10T00:12:29.045Z,27.50
2023-04-10T00:15:13.752Z,28.60
2023-04-10T00:16:46.489Z,29.70
2023-04-10T00:17:54.882Z,26.90
2023-04-10T00:19:18.758Z,31.30
2023-04-10T00:20:30.136Z,31.70
2023-04-10T00:22:06.002Z,30.40
2023-04-10T00:23:38.445Z,26.80
2023-04-10T00:25:11.069Z,29.00
2023-04-10T00:37:23.995Z,31.30
2023-04-10T00:38:49.460Z,31.30
2023-04-10T00:40:21.970Z,33.20
2023-04-10T00:41:45.695Z,28.20
2023-04-10T00:43:18.110Z,31.60
2023-04-10T00:44:50.597Z,29.80
2023-04-10T00:46:23.192Z,31.50
2023-04-10T00:47:56.120Z,31.00
2023-04-10T00:57:43.573Z,30.80
2023-04-10T00:59:11.686Z,30.80
2023-04-10T01:00:45.626Z,30.30
2023-04-10T01:02:20.740Z,29.50
2023-04-10T01:03:55.890Z,28.60
2023-04-10T01:05:30.348Z,30.30
2023-04-10T01:07:15.986Z,30.30
2023-04-10T01:08:49.970Z,30.10
2023-04-10T01:10:32.657Z,34.00
2023-04-10T01:12:31.048Z,31.60
2023-04-10T01:14:06.093Z,32.20
2023-04-10T01:16:01.607Z,36.00
2023-04-10T01:17:33.592Z,29.30
2023-04-10T01:19:25.542Z,32.10
2023-04-10T01:24:14.298Z,31.40
2023-04-10T01:32:40.856Z,30.30
2023-04-10T01:34:03.632Z,29.60
2023-04-10T01:35:27.988Z,32.50
2023-04-10T03:06:08.521Z,31.40
2023-04-10T03:07:41.042Z,35.30
2023-04-10T03:08:54.132Z,34.30
2023-04-10T03:10:06.363Z,31.40
2023-04-10T03:12:30.325Z,32.60
2023-04-10T03:13:51.735Z,35.00
2023-04-10T03:15:13.078Z,34.30
2023-04-10T03:16:45.526Z,32.40
2023-04-10T03:18:18.060Z,31.70
2023-04-10T03:43:23.038Z,34.90
2023-04-10T03:44:56.895Z,33.30
2023-04-10T03:46:30.922Z,34.70
2023-04-10T03:48:05.018Z,34.70
2023-04-10T03:52:42.857Z,38.20
2023-04-10T03:54:15.300Z,38.90
2023-04-10T03:55:40.667Z,35.90
2023-04-10T03:57:13.196Z,35.50
2023-04-10T03:58:45.820Z,34.10
2023-04-10T04:01:58.563Z,35.30
2023-04-10T04:03:11.468Z,34.90
2023-04-10T04:04:44.263Z,33.80
2023-04-10T04:06:16.713Z,34.20
2023-04-10T04:07:49.117Z,33.00
2023-04-10T04:09:21.738Z,34.20
2023-04-10T04:10:54.980Z,31.10
2023-04-10T04:12:09.025Z,32.90
2023-04-10T04:24:31.528Z,35.00
2023-04-10T04:25:43.271Z,35.20
2023-04-10T04:26:45.575Z,36.10
2023-04-10T04:27:55.366Z,32.60
2023-04-10T04:29:27.931Z,35.30
2023-04-10T04:31:00.400Z,34.50
2023-04-10T04:32:22.853Z,31.30
2023-04-10T04:35:00.047Z,34.30
2023-04-10T04:36:32.528Z,33.50
2023-04-10T04:38:05.275Z,33.70
2023-04-10T04:39:17.787Z,32.30
2023-04-10T04:44:14.826Z,32.20
2023-04-10T04:45:47.678Z,31.30
2023-04-10T04:48:12.134Z,32.30
2023-04-10T04:49:27.319Z,32.60
2023-04-10T04:50:52.439Z,36.60
2023-04-10T04:52:17.611Z,33.20
2023-04-10T04:53:50.277Z,30.30
2023-04-10T04:55:22.968Z,32.70
2023-04-10T04:56:54.760Z,33.10
2023-04-10T04:58:27.970Z,35.60
2023-04-10T04:59:20.809Z,32.30
2023-04-10T05:03:28.416Z,32.30
2023-04-10T05:16:04.568Z,33.50
2023-04-10T05:17:37.299Z,30.50
2023-04-10T05:19:09.970Z,37.50
2023-04-10T05:20:42.221Z,32.70
2023-04-10T05:22:16.307Z,32.30
2023-04-10T05:23:51.552Z,30.80
2023-04-10T05:25:22.345Z,32.20
2023-04-10T05:26:54.830Z,34.20
2023-04-10T05:28:27.709Z,33.50
2023-04-10T05:44:26.587Z,32.40
2023-04-10T05:46:00.489Z,29.50
2023-04-10T05:47:27.334Z,33.40
2023-04-10T05:49:01.612Z,34.40
2023-04-10T06:35:54.493Z,27.30
2023-04-10T06:38:47.536Z,25.50
2023-04-10T06:40:11.500Z,24.50
2023-04-10T06:41:46.997Z,25.90
2023-04-10T06:43:19.902Z,26.50
2023-04-10T06:45:45.868Z,24.30
2023-04-10T06:47:19.915Z,24.40
2023-04-10T06:48:54.398Z,22.20
2023-04-10T06:50:21.868Z,25.10
2023-04-10T06:51:55.934Z,26.50
2023-04-10T06:53:31.235Z,26.80
2023-04-10T07:06:07.642Z,19.00
2023-04-10T07:08:52.512Z,18.40
2023-04-10T07:10:25.635Z,19.80
2023-04-10T07:13:11.780Z,18.40
2023-04-10T07:14:45.785Z,17.80
2023-04-10T07:22:30.433Z,20.20
2023-04-10T07:23:57.610Z,18.40
2023-04-10T07:25:12.160Z,16.70
2023-04-10T07:26:46.347Z,16.30
2023-04-10T07:28:20.454Z,17.70
2023-04-10T07:39:10.225Z,20.30
2023-04-10T07:40:41.779Z,19.20
2023-04-10T07:42:14.356Z,20.70
2023-04-10T07:43:45.862Z,17.40
2023-04-10T07:45:08.118Z,19.00
2023-04-10T07:46:32.194Z,17.60
2023-04-10T07:48:04.089Z,17.40
2023-04-10T07:49:38.286Z,18.50
2023-04-10T07:53:05.702Z,17.30
2023-04-10T07:54:38.536Z,17.00
2023-04-10T07:56:11.177Z,19.80
2023-04-10T07:57:44.396Z,16.90
2023-04-10T08:07:07.426Z,18.60
2023-04-10T08:08:39.877Z,15.60
2023-04-10T08:09:53.397Z,15.70
2023-04-10T08:11:26.056Z,15.50
2023-04-10T08:12:58.779Z,15.60
2023-04-10T08:14:32.498Z,13.90
2023-04-10T08:15:56.940Z,16.00
2023-04-10T08:30:10.948Z,15.10
2023-04-10T08:32:56.198Z,14.10
2023-04-10T08:34:28.936Z,14.60
2023-04-10T08:35:50.446Z,15.10
2023-04-10T08:37:23.115Z,13.90
2023-04-10T08:38:55.844Z,17.80
2023-04-10T08:47:37.324Z,14.40
2023-04-10T08:49:11.237Z,13.90
2023-04-10T08:50:48.162Z,16.00
2023-04-10T08:52:22.243Z,13.70
2023-04-10T08:53:56.411Z,14.30
2023-04-10T08:55:31.982Z,13.60
2023-04-10T08:57:07.037Z,14.20
2023-04-10T08:58:43.540Z,12.90
2023-04-10T09:00:23.384Z,13.80
2023-04-10T09:01:46.800Z,14.10
2023-04-10T09:03:21.346Z,13.80
2023-04-10T09:04:45.649Z,16.00
2023-04-10T09:25:30.858Z,10.80
2023-04-10T09:26:54.657Z,11.90
2023-04-10T09:28:30.046Z,11.40
2023-04-10T09:30:02.455Z,12.30
2023-04-10T09:31:35.306Z,10.50
2023-04-10T09:33:16.782Z,8.60
2023-04-10T09:34:58.499Z,8.30
2023-04-10T09:36:37.093Z,8.50
2023-04-10T09:38:12.723Z,10.60
2023-04-10T09:39:45.310Z,9.30
2023-04-10T09:41:11.192Z,9.40
2023-04-10T09:42:49.889Z,6.80
2023-04-10T09:44:22.268Z,6.80
2023-04-10T09:45:55.033Z,6.20
2023-04-10T09:47:31.773Z,9.90
2023-04-10T09:49:05.852Z,9.50
2023-04-10T09:50:54.400Z,7.20
2023-04-10T09:52:26.239Z,7.20
2023-04-10T09:53:58.488Z,6.40
2023-04-10T09:55:37.371Z,5.70
2023-04-10T09:57:10.480Z,6.00
2023-04-10T09:58:24.009Z,4.90
2023-04-10T10:01:40.402Z,6.40
2023-04-10T10:03:15.437Z,7.80
2023-04-10T10:04:41.289Z,7.20
2023-04-10T10:05:53.963Z,6.20
2023-04-10T10:07:27.037Z,8.30
2023-04-10T10:08:53.054Z,9.00
2023-04-10T10:10:27.175Z,6.10
2023-04-10T10:23:23.163Z,6.30
2023-04-10T10:24:55.679Z,6.70
2023-04-10T10:26:24.285Z,6.00
2023-04-10T10:27:50.245Z,5.90
2023-04-10T10:29:22.882Z,6.40
2023-04-10T10:34:19.208Z,5.70
2023-04-10T10:35:51.816Z,8.50
2023-04-10T10:37:14.302Z,8.60
2023-04-10T10:39:30.417Z,6.80
2023-04-10T10:41:23.725Z,4.90
2023-04-10T10:43:08.444Z,6.70
2023-04-10T10:44:52.961Z,5.50
2023-04-10T10:46:49.316Z,6.40
2023-04-10T10:48:21.474Z,6.80
2023-04-10T10:50:00.029Z,8.30
2023-04-10T10:51:11.768Z,9.20
2023-04-10T10:52:47.449Z,5.10
2023-04-10T10:54:25.014Z,6.80
2023-04-10T10:56:03.714Z,5.80
2023-04-10T10:57:36.719Z,8.20
2023-04-10T10:59:11.834Z,5.90
2023-04-10T11:00:32.606Z,3.80
2023-04-10T11:02:05.534Z,5.40
2023-04-10T11:03:21.258Z,5.90
2023-04-10T11:04:33.915Z,4.70
2023-04-10T11:05:53.814Z,6.80
2023-04-10T11:07:28.228Z,4.10
2023-04-10T11:09:12.865Z,5.00
2023-04-10T11:10:48.166Z,4.90
2023-04-10T11:12:38.730Z,5.00
2023-04-10T11:14:20.159Z,5.30
2023-04-10T11:16:00.232Z,8.90
2023-04-10T11:17:35.816Z,7.30
2023-04-10T11:19:15.575Z,4.90
2023-04-10T11:20:58.524Z,3.70
2023-04-10T11:24:14.484Z,5.10
2023-04-10T11:25:54.330Z,5.50
2023-04-10T11:27:12.387Z,4.70
2023-04-10T11:28:45.062Z,4.70
2023-04-10T11:30:17.684Z,6.10
2023-04-10T11:31:59.396Z,3.80
2023-04-10T11:33:20.945Z,4.20
2023-04-10T11:35:05.120Z,5.20
2023-04-10T11:36:28.374Z,5.10
2023-04-10T11:38:03.808Z,5.00
2023-04-10T11:44:13.994Z,4.30
2023-04-10T11:46:05.347Z,5.70
2023-04-10T12:03:42.197Z,7.90
2023-04-10T12:05:13.570Z,8.60
2023-04-10T12:06:49.525Z,7.70
2023-04-10T12:08:15.166Z,7.20
2023-04-10T12:09:41.905Z,6.00
2023-04-10T12:15:42.256Z,4.90
2023-04-10T12:17:16.038Z,4.40
2023-04-10T12:39:16.434Z,7.50
2023-04-10T12:40:49.156Z,4.80
2023-04-10T12:43:34.208Z,5.50
2023-04-10T12:45:12.739Z,7.70
2023-04-10T12:46:35.558Z,4.70
2023-04-10T12:48:08.160Z,7.20
2023-04-10T12:49:41.012Z,4.50
2023-04-10T12:51:13.963Z,6.20
2023-04-10T12:52:51.193Z,6.80
2023-04-10T12:54:25.048Z,6.70
2023-04-10T12:55:50.957Z,5.60
2023-04-10T13:02:14.706Z,5.30
2023-04-10T13:03:48.736Z,6.40
2023-04-10T13:05:24.028Z,4.50
2023-04-10T13:06:59.225Z,4.40
2023-04-10T13:08:33.603Z,4.40
2023-04-10T13:10:11.493Z,3.90
2023-04-10T13:11:47.806Z,4.50
2023-04-10T13:13:22.743Z,4.80
2023-04-10T13:14:57.772Z,4.00
2023-04-10T13:16:32.861Z,4.10
2023-04-10T13:21:38.359Z,4.90
2023-04-10T13:22:40.184Z,4.30
2023-04-10T13:24:14.158Z,5.10
2023-04-10T13:25:27.697Z,3.90
2023-04-10T13:27:00.310Z,6.00
2023-04-10T13:28:26.207Z,6.10
2023-04-10T13:29:58.732Z,4.40
2023-04-10T13:31:20.308Z,3.90
2023-04-10T13:32:34.563Z,4.30
2023-04-10T13:33:50.130Z,3.60
2023-04-10T13:35:22.702Z,4.20
2023-04-10T13:36:35.042Z,3.60
2023-04-10T13:37:57.387Z,4.20
2023-04-10T13:39:22.958Z,6.60
2023-04-10T13:40:56.809Z,3.60
2023-04-10T13:42:16.178Z,4.30
2023-04-10T13:49:35.566Z,6.10
2023-04-10T13:50:53.737Z,7.20
2023-04-10T13:52:26.261Z,5.20
2023-04-10T13:53:59.022Z,6.50
2023-04-10T13:55:24.571Z,5.50
2023-04-10T13:56:57.198Z,4.30
2023-04-10T13:58:29.990Z,4.80
2023-04-10T13:59:52.567Z,4.50
2023-04-10T14:01:29.263Z,5.30
2023-04-10T14:03:03.279Z,7.00
2023-04-10T14:04:37.681Z,6.10
2023-04-10T14:06:12.133Z,7.50
2023-04-10T14:07:45.927Z,5.10
2023-04-10T14:26:58.616Z,4.60
2023-04-10T14:28:37.535Z,4.80
2023-04-10T14:29:55.138Z,5.10
2023-04-10T14:31:29.528Z,4.80
2023-04-10T14:32:53.459Z,4.40
2023-04-10T14:34:14.752Z,3.90
2023-04-10T14:35:29.566Z,5.10
2023-04-10T14:36:55.240Z,7.30
2023-04-10T14:38:28.015Z,5.10
2023-04-10T14:40:50.423Z,5.00
2023-04-10T14:42:11.966Z,5.90
2023-04-10T14:43:44.811Z,4.20
2023-04-10T14:46:22.666Z,4.90
2023-04-10T14:47:54.269Z,3.90
2023-04-10T14:49:25.742Z,4.20
2023-04-10T14:50:59.239Z,5.40
2023-04-10T14:52:22.360Z,4.60
2023-04-10T14:59:34.357Z,6.50
2023-04-10T15:01:08.939Z,4.70
2023-04-10T15:02:42.824Z,4.70
2023-04-10T15:04:06.635Z,5.40
2023-04-10T15:05:39.182Z,3.90
2023-04-10T15:07:00.820Z,2.90
2023-04-10T15:08:33.496Z,3.90
2023-04-10T15:10:06.395Z,2.90
2023-04-10T15:12:44.517Z,3.30
2023-04-10T15:14:25.907Z,3.30
2023-04-10T15:15:58.087Z,3.50
2023-04-10T15:18:47.333Z,3.50
2023-04-10T15:28:56.250Z,3.60
2023-04-10T15:37:45.594Z,3.70
2023-04-10T15:46:43.248Z,5.60
2023-04-10T15:50:58.648Z,18.70
2023-04-10T15:52:24.123Z,9.40
2023-04-10T15:53:46.773Z,10.80
2023-04-10T15:56:31.795Z,6.60
2023-04-10T15:58:04.287Z,5.70
2023-04-10T15:59:25.559Z,5.70
2023-04-10T16:06:58.583Z,6.00
2023-04-10T16:08:30.938Z,7.30
2023-04-10T16:10:03.533Z,6.10
2023-04-10T16:11:36.051Z,7.40
2023-04-10T16:12:57.189Z,8.40
2023-04-10T16:14:29.720Z,8.40
2023-04-10T16:16:02.260Z,8.50
2023-04-10T16:17:27.972Z,8.70
2023-04-10T16:18:49.623Z,7.40
2023-04-10T16:20:24.491Z,6.10
2023-04-10T16:21:41.910Z,7.60
2023-04-10T16:23:14.609Z,6.60
2023-04-10T16:24:39.599Z,5.70
2023-04-10T16:28:59.692Z,6.70
2023-04-10T16:31:32.365Z,6.30
2023-04-10T16:32:53.737Z,6.10
2023-04-10T16:34:06.000Z,5.50
2023-04-10T16:35:38.606Z,6.60
2023-04-10T16:37:12.260Z,5.90
2023-04-10T16:38:27.274Z,6.70
2023-04-10T16:39:18.544Z,7.30
2023-04-10T16:40:51.087Z,6.30
2023-04-10T16:42:23.715Z,7.30
2023-04-10T16:43:39.021Z,6.20
2023-04-10T16:45:14.292Z,6.10
2023-04-10T16:46:33.473Z,7.00
2023-04-10T16:48:00.188Z,8.10
2023-04-10T16:49:34.179Z,9.80
2023-04-10T16:58:29.804Z,6.40
2023-04-10T17:33:35.492Z,13.80
2023-04-10T17:35:08.218Z,21.90
2023-04-10T17:36:32.459Z,16.50
2023-04-10T17:38:06.075Z,13.20
2023-04-10T17:49:16.569Z,9.50
2023-04-10T17:50:49.285Z,8.70
2023-04-10T17:52:21.822Z,8.90
2023-04-10T17:53:55.613Z,7.70
2023-04-10T18:02:02.992Z,7.50
2023-04-10T18:03:23.515Z,8.20
2023-04-10T18:04:56.157Z,10.00
2023-04-10T18:06:31.755Z,8.70
2023-04-10T18:08:04.315Z,10.80
2023-04-10T18:09:37.926Z,11.10
2023-04-10T18:11:10.528Z,11.70
2023-04-10T18:12:43.098Z,10.90
2023-04-10T18:14:08.275Z,10.70
2023-04-10T18:15:40.951Z,13.60
2023-04-10T18:17:13.671Z,11.70
2023-04-10T18:25:40.397Z,10.90
2023-04-10T18:27:13.798Z,10.80
2023-04-10T18:28:40.808Z,9.90
2023-04-10T18:30:14.602Z,11.80
2023-04-10T18:52:25.862Z,14.70
2023-04-10T18:53:58.526Z,16.50
2023-04-10T18:55:31.120Z,16.50
2023-04-10T18:57:03.933Z,15.90
2023-04-10T19:03:04.774Z,12.90
2023-04-10T19:04:38.844Z,11.90
2023-04-10T19:06:13.019Z,16.20
2023-04-10T19:08:00.589Z,16.30
2023-04-10T19:09:35.098Z,14.00
2023-04-10T19:11:09.285Z,10.70
2023-04-10T19:12:43.520Z,13.50
2023-04-10T19:14:17.533Z,10.60
2023-04-10T19:29:44.975Z,8.30
2023-04-10T19:31:17.614Z,8.60
2023-04-10T19:32:50.269Z,9.30
2023-04-10T19:34:15.905Z,10.00
2023-04-10T19:43:47.514Z,9.50
2023-04-10T19:44:55.547Z,9.00
2023-04-10T19:46:16.953Z,10.40
2023-04-10T19:47:32.136Z,7.80
2023-04-10T19:49:04.701Z,8.70
2023-04-10T19:50:37.258Z,8.20
2023-04-10T19:52:09.823Z,8.90
2023-04-10T19:53:42.862Z,7.90
2023-04-10T19:56:17.769Z,7.70
2023-04-10T19:57:51.089Z,8.50
2023-04-10T19:59:17.413Z,7.80
2023-04-10T20:05:13.526Z,8.30
2023-04-10T20:06:39.851Z,8.00
2023-04-10T20:11:16.430Z,10.40
2023-04-10T20:12:40.047Z,9.60
2023-04-10T20:18:18.199Z,7.90
2023-04-10T20:19:51.709Z,8.00
2023-04-10T20:21:13.145Z,8.40
2023-04-10T20:22:38.534Z,8.60
2023-04-10T20:24:00.149Z,9.00
2023-04-10T20:25:33.039Z,11.20
2023-04-10T20:27:06.274Z,9.30
2023-04-10T20:28:19.064Z,9.10
2023-04-10T20:29:55.067Z,7.60
2023-04-10T20:31:20.600Z,8.30
2023-04-10T20:32:47.131Z,8.60
2023-04-10T20:34:17.052Z,14.20
2023-04-10T20:35:38.481Z,8.10
2023-04-10T20:37:04.617Z,8.40
2023-04-10T20:38:38.216Z,9.80
2023-04-10T20:40:10.644Z,8.60
2023-04-10T20:41:43.476Z,8.10
2023-04-10T20:44:28.898Z,9.50
2023-04-10T20:47:13.613Z,9.70
2023-04-10T20:49:41.097Z,9.60
2023-04-10T20:51:13.875Z,8.60
2023-04-10T20:52:40.838Z,10.60
2023-04-10T20:54:06.523Z,9.90
2023-04-10T20:55:38.951Z,9.10
2023-04-10T21:16:01.286Z,19.60
2023-04-10T21:17:16.363Z,23.90
2023-04-10T21:18:28.742Z,26.70
2023-04-10T21:19:43.142Z,16.50
2023-04-10T21:21:04.526Z,17.60
2023-04-10T21:22:37.005Z,17.30
2023-04-10T21:24:09.455Z,15.50
2023-04-10T21:25:31.994Z,17.40
2023-04-10T21:28:16.697Z,15.70
2023-04-10T21:42:02.330Z,20.70
2023-04-10T21:43:34.919Z,25.80
2023-04-10T21:45:07.528Z,21.80
2023-04-10T21:46:41.177Z,21.40
2023-04-10T21:55:59.729Z,18.50
2023-04-10T21:57:25.549Z,19.10
2023-04-10T21:58:57.956Z,21.50
2023-04-10T22:00:13.071Z,22.60
2023-04-10T22:01:45.754Z,20.80
2023-04-10T22:03:07.329Z,25.40
2023-04-10T22:04:51.418Z,28.80
2023-04-10T22:06:16.782Z,25.80
2023-04-10T22:09:02.672Z,19.40
2023-04-10T22:10:21.931Z,22.10
2023-04-10T22:11:34.581Z,22.40
2023-04-10T22:13:10.237Z,20.40
2023-04-10T22:14:37.045Z,19.90
2023-04-10T22:16:09.896Z,20.20
2023-04-10T22:18:55.103Z,19.60
2023-04-10T22:21:32.040Z,23.70
2023-04-10T22:23:04.501Z,22.90
2023-04-10T22:24:37.470Z,24.80
2023-04-10T22:34:33.450Z,17.60
2023-04-10T22:49:34.337Z,21.70
2023-04-10T22:51:08.243Z,23.30
2023-04-10T23:05:48.299Z,23.30
2023-04-10T23:08:22.201Z,25.90
2023-04-10T23:25:47.684Z,15.90
2023-04-10T23:27:00.021Z,17.60
2023-04-10T23:28:23.865Z,18.10
2023-04-10T23:29:56.378Z,19.90
2023-04-10T23:31:28.957Z,21.70
2023-04-10T23:33:01.125Z,20.20
2023-04-10T23:34:33.375Z,22.50
2023-04-10T23:36:06.018Z,24.00
2023-04-10T23:37:28.876Z,22.50
2023-04-10T23:38:52.568Z,21.70
2023-04-10T23:39:57.208Z,23.10
2023-04-10T23:41:16.454Z,26.50
2023-04-10T23:45:41.879Z,26.10
2023-04-10T23:59:18.668Z,20.20
